sensor_id;sensor_type;location;lat;lon;timestamp;P1;durP1;ratioP1;P2;durP2;ratioP2
9461;SDS011;4769;42.660;23.262;2023-07-31T00:02:16;7.40;;;4.40;;
9461;SDS011;4769;42.660;23.262;2023-07-31T00:04:42;5.00;;;4.50;;
9461;SDS011;4769;42.660;23.262;2023-07-31T00:07:10;5.43;;;4.90;;
9461;SDS011;4769;42.660;23.262;2023-07-31T00:09:36;4.82;;;4.43;;
9461;SDS011;4769;42.660;23.262;2023-07-31T00:12:02;4.85;;;4.32;;
9461;SDS011;4769;42.660;23.262;2023-07-31T00:14:28;4.57;;;4.10;;
9461;SDS011;4769;42.660;23.262;2023-07-31T00:16:54;4.75;;;4.32;;
9461;SDS011;4769;42.660;23.262;2023-07-31T00:19:19;4.97;;;4.55;;
9461;SDS011;4769;42.660;23.262;2023-07-31T00:21:45;4.75;;;4.35;;
9461;SDS011;4769;42.660;23.262;2023-07-31T00:24:13;4.72;;;4.32;;
9461;SDS011;4769;42.660;23.262;2023-07-31T00:26:39;6.55;;;4.97;;
9461;SDS011;4769;42.660;23.262;2023-07-31T00:29:05;5.70;;;5.22;;
9461;SDS011;4769;42.660;23.262;2023-07-31T00:31:30;5.30;;;4.90;;
9461;SDS011;4769;42.660;23.262;2023-07-31T00:33:56;5.60;;;5.00;;
9461;SDS011;4769;42.660;23.262;2023-07-31T00:36:22;7.25;;;5.20;;
9461;SDS011;4769;42.660;23.262;2023-07-31T00:38:47;5.18;;;4.78;;
9461;SDS011;4769;42.660;23.262;2023-07-31T00:41:16;6.18;;;5.68;;
9461;SDS011;4769;42.660;23.262;2023-07-31T00:43:41;5.60;;;5.10;;
9461;SDS011;4769;42.660;23.262;2023-07-31T00:46:07;6.30;;;5.70;;
9461;SDS011;4769;42.660;23.262;2023-07-31T00:48:33;6.53;;;6.03;;
9461;SDS011;4769;42.660;23.262;2023-07-31T00:51:00;7.60;;;6.93;;
9461;SDS011;4769;42.660;23.262;2023-07-31T00:53:25;8.25;;;7.50;;
9461;SDS011;4769;42.660;23.262;2023-07-31T00:55:52;8.43;;;7.80;;
9461;SDS011;4769;42.660;23.262;2023-07-31T00:58:21;9.00;;;8.30;;
9461;SDS011;4769;42.660;23.262;2023-07-31T01:00:46;8.63;;;7.97;;
9461;SDS011;4769;42.660;23.262;2023-07-31T01:03:12;9.30;;;8.50;;
9461;SDS011;4769;42.660;23.262;2023-07-31T01:05:39;10.32;;;9.27;;
9461;SDS011;4769;42.660;23.262;2023-07-31T01:08:15;12.00;;;10.90;;
9461;SDS011;4769;42.660;23.262;2023-07-31T01:10:51;13.00;;;12.00;;
9461;SDS011;4769;42.660;23.262;2023-07-31T01:13:24;14.25;;;13.02;;
9461;SDS011;4769;42.660;23.262;2023-07-31T01:15:50;13.93;;;12.73;;
9461;SDS011;4769;42.660;23.262;2023-07-31T01:18:15;14.98;;;13.85;;
9461;SDS011;4769;42.660;23.262;2023-07-31T01:20:41;16.73;;;15.32;;
9461;SDS011;4769;42.660;23.262;2023-07-31T01:26:03;17.55;;;16.05;;
9461;SDS011;4769;42.660;23.262;2023-07-31T01:28:37;20.30;;;18.60;;
9461;SDS011;4769;42.660;23.262;2023-07-31T01:31:17;20.58;;;18.95;;
9461;SDS011;4769;42.660;23.262;2023-07-31T01:33:45;22.88;;;20.88;;
9461;SDS011;4769;42.660;23.262;2023-07-31T01:36:12;23.05;;;21.02;;
9461;SDS011;4769;42.660;23.262;2023-07-31T01:38:38;23.80;;;21.70;;
9461;SDS011;4769;42.660;23.262;2023-07-31T01:41:06;25.02;;;22.73;;
9461;SDS011;4769;42.660;23.262;2023-07-31T01:43:32;23.45;;;21.45;;
9461;SDS011;4769;42.660;23.262;2023-07-31T01:45:57;24.52;;;22.35;;
9461;SDS011;4769;42.660;23.262;2023-07-31T01:48:23;26.55;;;24.08;;
9461;SDS011;4769;42.660;23.262;2023-07-31T01:50:49;24.48;;;22.27;;
9461;SDS011;4769;42.660;23.262;2023-07-31T01:53:14;26.40;;;23.92;;
9461;SDS011;4769;42.660;23.262;2023-07-31T01:55:40;26.33;;;23.90;;
9461;SDS011;4769;42.660;23.262;2023-07-31T01:58:09;25.02;;;22.88;;
9461;SDS011;4769;42.660;23.262;2023-07-31T02:00:34;25.10;;;22.83;;
9461;SDS011;4769;42.660;23.262;2023-07-31T02:03:00;26.42;;;23.98;;
9461;SDS011;4769;42.660;23.262;2023-07-31T02:05:26;27.38;;;24.85;;
9461;SDS011;4769;42.660;23.262;2023-07-31T02:07:51;26.73;;;24.33;;
9461;SDS011;4769;42.660;23.262;2023-07-31T02:10:17;26.23;;;23.83;;
9461;SDS011;4769;42.660;23.262;2023-07-31T02:12:43;26.95;;;24.40;;
9461;SDS011;4769;42.660;23.262;2023-07-31T02:15:11;26.80;;;24.30;;
9461;SDS011;4769;42.660;23.262;2023-07-31T02:17:37;25.55;;;23.27;;
9461;SDS011;4769;42.660;23.262;2023-07-31T02:20:03;25.58;;;23.45;;
9461;SDS011;4769;42.660;23.262;2023-07-31T02:22:29;26.02;;;23.70;;
9461;SDS011;4769;42.660;23.262;2023-07-31T02:24:55;24.92;;;22.73;;
9461;SDS011;4769;42.660;23.262;2023-07-31T02:27:21;23.73;;;21.42;;
9461;SDS011;4769;42.660;23.262;2023-07-31T02:29:46;25.23;;;23.02;;
9461;SDS011;4769;42.660;23.262;2023-07-31T02:32:14;25.55;;;23.08;;
9461;SDS011;4769;42.660;23.262;2023-07-31T02:34:40;24.85;;;22.65;;
9461;SDS011;4769;42.660;23.262;2023-07-31T02:37:06;23.25;;;21.15;;
9461;SDS011;4769;42.660;23.262;2023-07-31T02:39:31;24.45;;;22.35;;
9461;SDS011;4769;42.660;23.262;2023-07-31T02:41:57;24.40;;;22.27;;
9461;SDS011;4769;42.660;23.262;2023-07-31T02:44:23;23.92;;;21.88;;
9461;SDS011;4769;42.660;23.262;2023-07-31T02:46:48;25.75;;;23.45;;
9461;SDS011;4769;42.660;23.262;2023-07-31T02:49:16;25.80;;;23.60;;
9461;SDS011;4769;42.660;23.262;2023-07-31T02:51:42;26.00;;;23.75;;
9461;SDS011;4769;42.660;23.262;2023-07-31T02:54:08;24.88;;;22.67;;
9461;SDS011;4769;42.660;23.262;2023-07-31T02:56:33;25.25;;;23.08;;
9461;SDS011;4769;42.660;23.262;2023-07-31T02:58:59;24.55;;;22.40;;
9461;SDS011;4769;42.660;23.262;2023-07-31T03:01:25;26.83;;;24.48;;
9461;SDS011;4769;42.660;23.262;2023-07-31T03:03:50;25.55;;;23.35;;
9461;SDS011;4769;42.660;23.262;2023-07-31T03:06:19;25.23;;;23.08;;
9461;SDS011;4769;42.660;23.262;2023-07-31T03:08:44;25.75;;;23.45;;
9461;SDS011;4769;42.660;23.262;2023-07-31T03:11:10;25.65;;;23.45;;
9461;SDS011;4769;42.660;23.262;2023-07-31T03:13:36;25.65;;;23.45;;
9461;SDS011;4769;42.660;23.262;2023-07-31T03:16:01;25.35;;;23.15;;
9461;SDS011;4769;42.660;23.262;2023-07-31T03:18:27;25.92;;;23.50;;
9461;SDS011;4769;42.660;23.262;2023-07-31T03:20:53;25.92;;;23.65;;
9461;SDS011;4769;42.660;23.262;2023-07-31T03:23:21;25.45;;;23.15;;
9461;SDS011;4769;42.660;23.262;2023-07-31T03:25:56;26.10;;;23.80;;
9461;SDS011;4769;42.660;23.262;2023-07-31T03:28:22;26.35;;;24.05;;
9461;SDS011;4769;42.660;23.262;2023-07-31T03:30:48;26.27;;;23.55;;
9461;SDS011;4769;42.660;23.262;2023-07-31T03:33:14;25.42;;;23.23;;
9461;SDS011;4769;42.660;23.262;2023-07-31T03:35:39;25.63;;;23.30;;
9461;SDS011;4769;42.660;23.262;2023-07-31T03:38:05;26.05;;;23.63;;
9461;SDS011;4769;42.660;23.262;2023-07-31T03:40:33;27.13;;;24.58;;
9461;SDS011;4769;42.660;23.262;2023-07-31T03:42:59;26.85;;;24.25;;
9461;SDS011;4769;42.660;23.262;2023-07-31T03:45:25;26.15;;;23.75;;
9461;SDS011;4769;42.660;23.262;2023-07-31T03:47:50;25.73;;;23.35;;
9461;SDS011;4769;42.660;23.262;2023-07-31T03:50:16;26.10;;;23.75;;
9461;SDS011;4769;42.660;23.262;2023-07-31T03:52:42;27.25;;;24.65;;
9461;SDS011;4769;42.660;23.262;2023-07-31T03:55:08;25.30;;;22.98;;
9461;SDS011;4769;42.660;23.262;2023-07-31T03:57:36;29.42;;;26.73;;
9461;SDS011;4769;42.660;23.262;2023-07-31T04:00:02;27.42;;;24.83;;
9461;SDS011;4769;42.660;23.262;2023-07-31T04:02:28;28.17;;;25.58;;
9461;SDS011;4769;42.660;23.262;2023-07-31T04:04:54;26.05;;;23.42;;
9461;SDS011;4769;42.660;23.262;2023-07-31T04:07:20;26.73;;;24.30;;
9461;SDS011;4769;42.660;23.262;2023-07-31T04:09:46;27.75;;;25.15;;
9461;SDS011;4769;42.660;23.262;2023-07-31T04:12:11;25.95;;;23.65;;
9461;SDS011;4769;42.660;23.262;2023-07-31T04:14:39;28.83;;;26.02;;
9461;SDS011;4769;42.660;23.262;2023-07-31T04:17:05;24.17;;;21.92;;
9461;SDS011;4769;42.660;23.262;2023-07-31T04:19:31;25.75;;;23.45;;
9461;SDS011;4769;42.660;23.262;2023-07-31T04:21:57;25.30;;;22.90;;
9461;SDS011;4769;42.660;23.262;2023-07-31T04:24:22;25.33;;;22.90;;
9461;SDS011;4769;42.660;23.262;2023-07-31T04:26:48;26.63;;;24.20;;
9461;SDS011;4769;42.660;23.262;2023-07-31T04:29:14;24.08;;;21.77;;
9461;SDS011;4769;42.660;23.262;2023-07-31T04:31:42;25.52;;;23.20;;
9461;SDS011;4769;42.660;23.262;2023-07-31T04:34:07;26.55;;;23.98;;
9461;SDS011;4769;42.660;23.262;2023-07-31T04:36:33;23.75;;;21.40;;
9461;SDS011;4769;42.660;23.262;2023-07-31T04:38:59;23.98;;;21.77;;
9461;SDS011;4769;42.660;23.262;2023-07-31T04:41:25;25.60;;;23.08;;
9461;SDS011;4769;42.660;23.262;2023-07-31T04:43:51;25.45;;;23.02;;
9461;SDS011;4769;42.660;23.262;2023-07-31T04:46:17;23.83;;;21.65;;
9461;SDS011;4769;42.660;23.262;2023-07-31T04:48:45;24.23;;;21.92;;
9461;SDS011;4769;42.660;23.262;2023-07-31T04:51:11;24.65;;;22.35;;
9461;SDS011;4769;42.660;23.262;2023-07-31T04:53:37;24.42;;;22.10;;
9461;SDS011;4769;42.660;23.262;2023-07-31T04:56:03;22.92;;;20.80;;
9461;SDS011;4769;42.660;23.262;2023-07-31T04:58:29;22.00;;;20.00;;
9461;SDS011;4769;42.660;23.262;2023-07-31T05:00:54;21.42;;;19.52;;
9461;SDS011;4769;42.660;23.262;2023-07-31T05:03:20;23.60;;;21.38;;
9461;SDS011;4769;42.660;23.262;2023-07-31T05:05:49;21.25;;;19.08;;
9461;SDS011;4769;42.660;23.262;2023-07-31T05:08:15;22.00;;;19.92;;
9461;SDS011;4769;42.660;23.262;2023-07-31T05:10:40;22.95;;;20.85;;
9461;SDS011;4769;42.660;23.262;2023-07-31T05:13:06;19.95;;;18.15;;
9461;SDS011;4769;42.660;23.262;2023-07-31T05:15:32;20.08;;;18.17;;
9461;SDS011;4769;42.660;23.262;2023-07-31T05:17:57;20.00;;;18.27;;
9461;SDS011;4769;42.660;23.262;2023-07-31T05:20:23;20.15;;;18.45;;
9461;SDS011;4769;42.660;23.262;2023-07-31T05:22:51;18.77;;;17.20;;
9461;SDS011;4769;42.660;23.262;2023-07-31T05:25:17;18.67;;;17.08;;
9461;SDS011;4769;42.660;23.262;2023-07-31T05:27:43;18.23;;;16.73;;
9461;SDS011;4769;42.660;23.262;2023-07-31T05:30:08;17.50;;;15.90;;
9461;SDS011;4769;42.660;23.262;2023-07-31T05:32:34;16.92;;;15.52;;
9461;SDS011;4769;42.660;23.262;2023-07-31T05:35:00;16.98;;;15.55;;
9461;SDS011;4769;42.660;23.262;2023-07-31T05:37:26;16.10;;;14.80;;
9461;SDS011;4769;42.660;23.262;2023-07-31T05:39:54;16.45;;;15.02;;
9461;SDS011;4769;42.660;23.262;2023-07-31T05:42:20;14.70;;;13.45;;
9461;SDS011;4769;42.660;23.262;2023-07-31T05:44:45;14.68;;;13.48;;
9461;SDS011;4769;42.660;23.262;2023-07-31T05:47:11;13.50;;;12.18;;
9461;SDS011;4769;42.660;23.262;2023-07-31T05:49:37;13.85;;;12.73;;
9461;SDS011;4769;42.660;23.262;2023-07-31T05:52:02;13.50;;;12.43;;
9461;SDS011;4769;42.660;23.262;2023-07-31T05:54:29;12.88;;;11.88;;
9461;SDS011;4769;42.660;23.262;2023-07-31T05:56:57;11.35;;;10.45;;
9461;SDS011;4769;42.660;23.262;2023-07-31T05:59:23;10.82;;;9.93;;
9461;SDS011;4769;42.660;23.262;2023-07-31T06:01:49;9.82;;;8.90;;
9461;SDS011;4769;42.660;23.262;2023-07-31T06:04:15;9.38;;;8.52;;
9461;SDS011;4769;42.660;23.262;2023-07-31T06:06:40;8.23;;;7.63;;
9461;SDS011;4769;42.660;23.262;2023-07-31T06:09:06;8.25;;;7.47;;
9461;SDS011;4769;42.660;23.262;2023-07-31T06:11:32;8.93;;;8.23;;
9461;SDS011;4769;42.660;23.262;2023-07-31T06:14:00;8.57;;;7.88;;
9461;SDS011;4769;42.660;23.262;2023-07-31T06:16:26;7.07;;;6.57;;
9461;SDS011;4769;42.660;23.262;2023-07-31T06:18:51;6.78;;;6.22;;
9461;SDS011;4769;42.660;23.262;2023-07-31T06:21:17;8.13;;;5.88;;
9461;SDS011;4769;42.660;23.262;2023-07-31T06:23:43;6.35;;;5.78;;
9461;SDS011;4769;42.660;23.262;2023-07-31T06:26:08;6.50;;;5.78;;
9461;SDS011;4769;42.660;23.262;2023-07-31T06:28:34;6.18;;;5.57;;
9461;SDS011;4769;42.660;23.262;2023-07-31T06:31:02;6.20;;;5.60;;
9461;SDS011;4769;42.660;23.262;2023-07-31T06:33:28;5.95;;;5.35;;
9461;SDS011;4769;42.660;23.262;2023-07-31T06:35:54;6.43;;;5.90;;
9461;SDS011;4769;42.660;23.262;2023-07-31T06:38:21;5.88;;;5.22;;
9461;SDS011;4769;42.660;23.262;2023-07-31T06:40:58;6.43;;;5.82;;
9461;SDS011;4769;42.660;23.262;2023-07-31T06:43:25;5.50;;;5.00;;
9461;SDS011;4769;42.660;23.262;2023-07-31T06:45:50;5.55;;;5.10;;
9461;SDS011;4769;42.660;23.262;2023-07-31T06:48:19;5.82;;;5.32;;
9461;SDS011;4769;42.660;23.262;2023-07-31T06:50:44;8.48;;;6.93;;
9461;SDS011;4769;42.660;23.262;2023-07-31T06:53:10;6.32;;;5.57;;
9461;SDS011;4769;42.660;23.262;2023-07-31T06:55:35;5.50;;;4.88;;
9461;SDS011;4769;42.660;23.262;2023-07-31T06:58:01;5.20;;;4.70;;
9461;SDS011;4769;42.660;23.262;2023-07-31T07:00:27;6.95;;;4.13;;
9461;SDS011;4769;42.660;23.262;2023-07-31T07:02:53;4.78;;;4.28;;
9461;SDS011;4769;42.660;23.262;2023-07-31T07:05:21;4.10;;;3.80;;
9461;SDS011;4769;42.660;23.262;2023-07-31T07:07:48;4.07;;;3.75;;
9461;SDS011;4769;42.660;23.262;2023-07-31T07:10:14;3.80;;;3.50;;
9461;SDS011;4769;42.660;23.262;2023-07-31T07:12:40;4.75;;;3.67;;
9461;SDS011;4769;42.660;23.262;2023-07-31T07:15:06;4.28;;;3.58;;
9461;SDS011;4769;42.660;23.262;2023-07-31T07:17:33;3.60;;;3.30;;
9461;SDS011;4769;42.660;23.262;2023-07-31T07:19:58;4.30;;;3.30;;
9461;SDS011;4769;42.660;23.262;2023-07-31T07:22:27;4.82;;;3.85;;
9461;SDS011;4769;42.660;23.262;2023-07-31T07:24:53;3.50;;;3.20;;
9461;SDS011;4769;42.660;23.262;2023-07-31T07:27:19;3.65;;;3.35;;
9461;SDS011;4769;42.660;23.262;2023-07-31T07:29:45;3.65;;;3.20;;
9461;SDS011;4769;42.660;23.262;2023-07-31T07:32:11;3.80;;;3.50;;
9461;SDS011;4769;42.660;23.262;2023-07-31T07:34:37;5.00;;;3.55;;
9461;SDS011;4769;42.660;23.262;2023-07-31T07:37:03;3.30;;;3.10;;
9461;SDS011;4769;42.660;23.262;2023-07-31T07:39:32;3.92;;;3.53;;
9461;SDS011;4769;42.660;23.262;2023-07-31T07:41:57;7.85;;;4.35;;
9461;SDS011;4769;42.660;23.262;2023-07-31T07:44:23;4.53;;;4.13;;
9461;SDS011;4769;42.660;23.262;2023-07-31T07:46:49;3.60;;;3.30;;
9461;SDS011;4769;42.660;23.262;2023-07-31T07:49:14;3.67;;;3.38;;
9461;SDS011;4769;42.660;23.262;2023-07-31T07:51:40;3.80;;;3.50;;
9461;SDS011;4769;42.660;23.262;2023-07-31T07:54:06;3.72;;;3.35;;
9461;SDS011;4769;42.660;23.262;2023-07-31T07:56:34;4.95;;;3.38;;
9461;SDS011;4769;42.660;23.262;2023-07-31T07:58:59;3.47;;;3.13;;
9461;SDS011;4769;42.660;23.262;2023-07-31T08:01:25;3.03;;;2.72;;
9461;SDS011;4769;42.660;23.262;2023-07-31T08:03:51;3.92;;;3.20;;
9461;SDS011;4769;42.660;23.262;2023-07-31T08:06:16;3.80;;;3.33;;
9461;SDS011;4769;42.660;23.262;2023-07-31T08:08:42;8.18;;;3.58;;
9461;SDS011;4769;42.660;23.262;2023-07-31T08:11:08;4.93;;;3.47;;
9461;SDS011;4769;42.660;23.262;2023-07-31T08:13:36;3.85;;;3.55;;
9461;SDS011;4769;42.660;23.262;2023-07-31T08:16:02;4.13;;;3.25;;
9461;SDS011;4769;42.660;23.262;2023-07-31T08:18:28;3.60;;;3.30;;
9461;SDS011;4769;42.660;23.262;2023-07-31T08:20:53;3.65;;;3.35;;
9461;SDS011;4769;42.660;23.262;2023-07-31T08:23:19;3.67;;;2.95;;
9461;SDS011;4769;42.660;23.262;2023-07-31T08:25:45;3.38;;;3.13;;
9461;SDS011;4769;42.660;23.262;2023-07-31T08:28:11;4.47;;;3.15;;
9461;SDS011;4769;42.660;23.262;2023-07-31T08:30:39;4.57;;;2.88;;
9461;SDS011;4769;42.660;23.262;2023-07-31T08:33:05;3.70;;;3.15;;
9461;SDS011;4769;42.660;23.262;2023-07-31T08:35:30;5.07;;;3.40;;
9461;SDS011;4769;42.660;23.262;2023-07-31T08:37:56;3.90;;;3.50;;
9461;SDS011;4769;42.660;23.262;2023-07-31T08:40:22;3.42;;;3.13;;
9461;SDS011;4769;42.660;23.262;2023-07-31T08:42:48;3.20;;;2.90;;
9461;SDS011;4769;42.660;23.262;2023-07-31T08:45:16;4.03;;;3.60;;
9461;SDS011;4769;42.660;23.262;2023-07-31T08:47:47;3.47;;;3.20;;
9461;SDS011;4769;42.660;23.262;2023-07-31T08:50:14;6.00;;;3.60;;
9461;SDS011;4769;42.660;23.262;2023-07-31T08:52:43;3.40;;;3.10;;
9461;SDS011;4769;42.660;23.262;2023-07-31T08:55:09;3.50;;;3.20;;
9461;SDS011;4769;42.660;23.262;2023-07-31T08:57:36;3.47;;;3.03;;
9461;SDS011;4769;42.660;23.262;2023-07-31T09:00:04;3.70;;;3.40;;
9461;SDS011;4769;42.660;23.262;2023-07-31T09:02:34;2.95;;;2.75;;
9461;SDS011;4769;42.660;23.262;2023-07-31T09:05:08;3.20;;;3.00;;
9461;SDS011;4769;42.660;23.262;2023-07-31T09:07:35;3.53;;;3.22;;
9461;SDS011;4769;42.660;23.262;2023-07-31T09:10:02;2.97;;;2.78;;
9461;SDS011;4769;42.660;23.262;2023-07-31T09:12:28;4.13;;;3.17;;
9461;SDS011;4769;42.660;23.262;2023-07-31T09:14:54;6.20;;;3.10;;
9461;SDS011;4769;42.660;23.262;2023-07-31T09:17:28;3.55;;;3.15;;
9461;SDS011;4769;42.660;23.262;2023-07-31T09:19:54;3.28;;;3.05;;
9461;SDS011;4769;42.660;23.262;2023-07-31T09:22:25;4.82;;;3.55;;
9461;SDS011;4769;42.660;23.262;2023-07-31T09:24:57;3.60;;;3.33;;
9461;SDS011;4769;42.660;23.262;2023-07-31T09:27:45;4.55;;;3.22;;
9461;SDS011;4769;42.660;23.262;2023-07-31T09:30:11;7.00;;;3.88;;
9461;SDS011;4769;42.660;23.262;2023-07-31T09:32:37;3.50;;;3.20;;
9461;SDS011;4769;42.660;23.262;2023-07-31T09:35:05;3.65;;;3.35;;
9461;SDS011;4769;42.660;23.262;2023-07-31T09:37:41;4.43;;;3.20;;
9461;SDS011;4769;42.660;23.262;2023-07-31T09:40:07;3.63;;;3.33;;
9461;SDS011;4769;42.660;23.262;2023-07-31T09:42:34;4.22;;;3.50;;
9461;SDS011;4769;42.660;23.262;2023-07-31T09:45:06;3.90;;;3.03;;
9461;SDS011;4769;42.660;23.262;2023-07-31T09:47:32;4.22;;;3.42;;
9461;SDS011;4769;42.660;23.262;2023-07-31T09:49:58;4.47;;;3.33;;
9461;SDS011;4769;42.660;23.262;2023-07-31T09:52:25;3.13;;;2.83;;
9461;SDS011;4769;42.660;23.262;2023-07-31T09:54:54;3.47;;;2.90;;
9461;SDS011;4769;42.660;23.262;2023-07-31T09:57:19;3.40;;;3.00;;
9461;SDS011;4769;42.660;23.262;2023-07-31T09:59:47;3.33;;;2.92;;
9461;SDS011;4769;42.660;23.262;2023-07-31T10:02:14;4.70;;;2.75;;
9461;SDS011;4769;42.660;23.262;2023-07-31T10:04:45;3.47;;;3.08;;
9461;SDS011;4769;42.660;23.262;2023-07-31T10:07:14;3.20;;;2.90;;
9461;SDS011;4769;42.660;23.262;2023-07-31T10:09:42;3.08;;;2.80;;
9461;SDS011;4769;42.660;23.262;2023-07-31T10:12:12;4.97;;;2.90;;
9461;SDS011;4769;42.660;23.262;2023-07-31T10:14:42;2.70;;;2.50;;
9461;SDS011;4769;42.660;23.262;2023-07-31T10:17:08;2.60;;;2.40;;
9461;SDS011;4769;42.660;23.262;2023-07-31T10:19:34;2.80;;;2.60;;
9461;SDS011;4769;42.660;23.262;2023-07-31T10:22:00;5.63;;;3.72;;
9461;SDS011;4769;42.660;23.262;2023-07-31T10:24:28;3.38;;;2.95;;
9461;SDS011;4769;42.660;23.262;2023-07-31T10:26:54;3.35;;;3.08;;
9461;SDS011;4769;42.660;23.262;2023-07-31T10:29:25;2.80;;;2.47;;
9461;SDS011;4769;42.660;23.262;2023-07-31T10:31:52;2.80;;;2.60;;
9461;SDS011;4769;42.660;23.262;2023-07-31T10:34:21;2.63;;;2.42;;
9461;SDS011;4769;42.660;23.262;2023-07-31T10:36:47;2.80;;;2.60;;
9461;SDS011;4769;42.660;23.262;2023-07-31T10:42:00;2.60;;;2.40;;
9461;SDS011;4769;42.660;23.262;2023-07-31T10:44:37;2.97;;;2.60;;
9461;SDS011;4769;42.660;23.262;2023-07-31T10:47:03;2.70;;;2.50;;
9461;SDS011;4769;42.660;23.262;2023-07-31T10:49:29;2.70;;;2.50;;
9461;SDS011;4769;42.660;23.262;2023-07-31T10:51:55;3.15;;;2.40;;
9461;SDS011;4769;42.660;23.262;2023-07-31T10:54:21;2.63;;;2.42;;
9461;SDS011;4769;42.660;23.262;2023-07-31T10:56:47;3.70;;;2.50;;
9461;SDS011;4769;42.660;23.262;2023-07-31T10:59:15;5.22;;;2.60;;
9461;SDS011;4769;42.660;23.262;2023-07-31T11:01:53;5.82;;;2.70;;
9461;SDS011;4769;42.660;23.262;2023-07-31T11:04:23;2.17;;;1.98;;
9461;SDS011;4769;42.660;23.262;2023-07-31T11:06:55;2.00;;;1.90;;
9461;SDS011;4769;42.660;23.262;2023-07-31T11:09:21;2.47;;;2.28;;
9461;SDS011;4769;42.660;23.262;2023-07-31T11:11:47;3.47;;;2.03;;
9461;SDS011;4769;42.660;23.262;2023-07-31T11:14:12;2.15;;;1.95;;
9461;SDS011;4769;42.660;23.262;2023-07-31T11:16:38;2.35;;;2.05;;
9461;SDS011;4769;42.660;23.262;2023-07-31T11:19:10;2.15;;;2.00;;
9461;SDS011;4769;42.660;23.262;2023-07-31T11:21:36;3.95;;;2.55;;
9461;SDS011;4769;42.660;23.262;2023-07-31T11:24:02;3.47;;;2.30;;
9461;SDS011;4769;42.660;23.262;2023-07-31T11:26:28;2.83;;;2.20;;
9461;SDS011;4769;42.660;23.262;2023-07-31T11:28:53;2.90;;;2.22;;
9461;SDS011;4769;42.660;23.262;2023-07-31T11:31:19;2.50;;;2.30;;
9461;SDS011;4769;42.660;23.262;2023-07-31T11:33:45;2.47;;;2.28;;
9461;SDS011;4769;42.660;23.262;2023-07-31T11:36:16;2.78;;;2.58;;
9461;SDS011;4769;42.660;23.262;2023-07-31T11:38:43;3.40;;;2.58;;
9461;SDS011;4769;42.660;23.262;2023-07-31T11:41:08;3.13;;;2.70;;
9461;SDS011;4769;42.660;23.262;2023-07-31T11:43:34;3.00;;;2.80;;
9461;SDS011;4769;42.660;23.262;2023-07-31T11:46:02;4.45;;;3.22;;
9461;SDS011;4769;42.660;23.262;2023-07-31T11:48:29;3.35;;;3.15;;
9461;SDS011;4769;42.660;23.262;2023-07-31T11:50:57;3.35;;;2.97;;
9461;SDS011;4769;42.660;23.262;2023-07-31T11:53:26;3.10;;;2.90;;
9461;SDS011;4769;42.660;23.262;2023-07-31T11:55:55;3.42;;;2.83;;
9461;SDS011;4769;42.660;23.262;2023-07-31T11:58:23;2.95;;;2.75;;
9461;SDS011;4769;42.660;23.262;2023-07-31T12:00:49;3.78;;;3.30;;
9461;SDS011;4769;42.660;23.262;2023-07-31T12:03:15;3.03;;;2.80;;
9461;SDS011;4769;42.660;23.262;2023-07-31T12:05:41;3.80;;;3.50;;
9461;SDS011;4769;42.660;23.262;2023-07-31T12:08:10;3.80;;;3.50;;
9461;SDS011;4769;42.660;23.262;2023-07-31T12:10:39;3.90;;;3.60;;
9461;SDS011;4769;42.660;23.262;2023-07-31T12:13:06;4.35;;;3.95;;
9461;SDS011;4769;42.660;23.262;2023-07-31T12:15:33;4.30;;;4.00;;
9461;SDS011;4769;42.660;23.262;2023-07-31T12:18:00;4.00;;;3.70;;
9461;SDS011;4769;42.660;23.262;2023-07-31T12:20:28;5.20;;;4.80;;
9461;SDS011;4769;42.660;23.262;2023-07-31T12:22:55;5.60;;;5.10;;
9461;SDS011;4769;42.660;23.262;2023-07-31T12:25:21;6.30;;;5.82;;
9461;SDS011;4769;42.660;23.262;2023-07-31T12:27:50;6.05;;;5.53;;
9461;SDS011;4769;42.660;23.262;2023-07-31T12:30:28;6.57;;;6.00;;
9461;SDS011;4769;42.660;23.262;2023-07-31T12:32:54;6.43;;;5.65;;
9461;SDS011;4769;42.660;23.262;2023-07-31T12:35:20;5.88;;;5.47;;
9461;SDS011;4769;42.660;23.262;2023-07-31T12:37:46;6.22;;;5.72;;
9461;SDS011;4769;42.660;23.262;2023-07-31T12:40:11;5.80;;;5.40;;
9461;SDS011;4769;42.660;23.262;2023-07-31T12:42:37;6.00;;;5.57;;
9461;SDS011;4769;42.660;23.262;2023-07-31T12:45:06;6.00;;;5.50;;
9461;SDS011;4769;42.660;23.262;2023-07-31T12:47:32;6.07;;;5.57;;
9461;SDS011;4769;42.660;23.262;2023-07-31T12:49:58;5.97;;;5.55;;
9461;SDS011;4769;42.660;23.262;2023-07-31T12:52:23;6.65;;;6.05;;
9461;SDS011;4769;42.660;23.262;2023-07-31T12:54:49;6.57;;;6.07;;
9461;SDS011;4769;42.660;23.262;2023-07-31T12:57:15;6.85;;;6.25;;
9461;SDS011;4769;42.660;23.262;2023-07-31T12:59:40;7.20;;;6.63;;
9461;SDS011;4769;42.660;23.262;2023-07-31T13:02:09;6.20;;;5.70;;
9461;SDS011;4769;42.660;23.262;2023-07-31T13:04:35;8.20;;;6.25;;
9461;SDS011;4769;42.660;23.262;2023-07-31T13:07:00;6.47;;;5.97;;
9461;SDS011;4769;42.660;23.262;2023-07-31T13:09:26;7.05;;;6.55;;
9461;SDS011;4769;42.660;23.262;2023-07-31T13:11:52;7.20;;;6.50;;
9461;SDS011;4769;42.660;23.262;2023-07-31T13:14:17;7.25;;;6.65;;
9461;SDS011;4769;42.660;23.262;2023-07-31T13:16:43;6.22;;;5.65;;
9461;SDS011;4769;42.660;23.262;2023-07-31T13:19:11;8.00;;;6.18;;
9461;SDS011;4769;42.660;23.262;2023-07-31T13:21:37;6.30;;;5.80;;
9461;SDS011;4769;42.660;23.262;2023-07-31T13:24:03;6.25;;;5.75;;
9461;SDS011;4769;42.660;23.262;2023-07-31T13:26:29;5.50;;;5.10;;
9461;SDS011;4769;42.660;23.262;2023-07-31T13:28:55;5.70;;;5.30;;
9461;SDS011;4769;42.660;23.262;2023-07-31T13:31:20;5.32;;;4.82;;
9461;SDS011;4769;42.660;23.262;2023-07-31T13:33:46;4.97;;;4.20;;
9461;SDS011;4769;42.660;23.262;2023-07-31T13:36:14;5.10;;;4.70;;
9461;SDS011;4769;42.660;23.262;2023-07-31T13:38:40;4.65;;;4.25;;
9461;SDS011;4769;42.660;23.262;2023-07-31T13:41:05;5.10;;;4.70;;
9461;SDS011;4769;42.660;23.262;2023-07-31T13:43:31;12.55;;;5.30;;
9461;SDS011;4769;42.660;23.262;2023-07-31T13:45:57;9.25;;;4.68;;
9461;SDS011;4769;42.660;23.262;2023-07-31T13:48:23;4.95;;;4.55;;
9461;SDS011;4769;42.660;23.262;2023-07-31T13:50:48;5.10;;;4.55;;
9461;SDS011;4769;42.660;23.262;2023-07-31T13:53:17;5.00;;;4.47;;
9461;SDS011;4769;42.660;23.262;2023-07-31T13:55:42;6.70;;;4.43;;
9461;SDS011;4769;42.660;23.262;2023-07-31T13:58:08;5.22;;;4.65;;
9461;SDS011;4769;42.660;23.262;2023-07-31T14:00:34;4.60;;;4.20;;
9461;SDS011;4769;42.660;23.262;2023-07-31T14:02:59;4.90;;;4.50;;
9461;SDS011;4769;42.660;23.262;2023-07-31T14:05:25;5.05;;;4.65;;
9461;SDS011;4769;42.660;23.262;2023-07-31T14:07:51;5.18;;;4.70;;
9461;SDS011;4769;42.660;23.262;2023-07-31T14:10:19;4.50;;;4.07;;
9461;SDS011;4769;42.660;23.262;2023-07-31T14:12:45;5.95;;;4.80;;
9461;SDS011;4769;42.660;23.262;2023-07-31T14:15:11;5.03;;;4.53;;
9461;SDS011;4769;42.660;23.262;2023-07-31T14:17:37;5.38;;;4.47;;
9461;SDS011;4769;42.660;23.262;2023-07-31T14:20:03;4.93;;;4.10;;
9461;SDS011;4769;42.660;23.262;2023-07-31T14:22:29;5.90;;;3.92;;
9461;SDS011;4769;42.660;23.262;2023-07-31T14:24:55;5.90;;;4.15;;
9461;SDS011;4769;42.660;23.262;2023-07-31T14:27:23;4.63;;;4.22;;
9461;SDS011;4769;42.660;23.262;2023-07-31T14:29:49;4.95;;;4.45;;
9461;SDS011;4769;42.660;23.262;2023-07-31T14:32:15;5.22;;;4.20;;
9461;SDS011;4769;42.660;23.262;2023-07-31T14:34:41;6.35;;;3.92;;
9461;SDS011;4769;42.660;23.262;2023-07-31T14:37:06;4.22;;;3.92;;
9461;SDS011;4769;42.660;23.262;2023-07-31T14:39:32;5.97;;;4.18;;
9461;SDS011;4769;42.660;23.262;2023-07-31T14:41:58;4.15;;;3.83;;
9461;SDS011;4769;42.660;23.262;2023-07-31T14:44:26;4.38;;;3.97;;
9461;SDS011;4769;42.660;23.262;2023-07-31T14:46:52;4.40;;;4.00;;
9461;SDS011;4769;42.660;23.262;2023-07-31T14:49:17;6.70;;;4.28;;
9461;SDS011;4769;42.660;23.262;2023-07-31T14:51:43;4.93;;;4.00;;
9461;SDS011;4769;42.660;23.262;2023-07-31T14:54:09;6.07;;;3.72;;
9461;SDS011;4769;42.660;23.262;2023-07-31T14:56:34;4.20;;;3.58;;